sensor_id;sensor_type;location;lat;lon;timestamp;P1;durP1;ratioP1;P2;durP2;ratioP2
21860;SDS011;11095;48.066;8.540;2024-01-15T00:01:28;23.85;;;11.05;;
21860;SDS011;11095;48.066;8.540;2024-01-15T00:03:54;22.73;;;10.85;;
21860;SDS011;11095;48.066;8.540;2024-01-15T00:06:20;25.15;;;10.68;;
21860;SDS011;11095;48.066;8.540;2024-01-15T00:08:45;23.33;;;10.85;;
21860;SDS011;11095;48.066;8.540;2024-01-15T00:11:11;23.33;;;10.82;;
21860;SDS011;11095;48.066;8.540;2024-01-15T00:13:37;24.55;;;10.48;;
21860;SDS011;11095;48.066;8.540;2024-01-15T00:16:03;21.77;;;10.45;;
21860;SDS011;11095;48.066;8.540;2024-01-15T00:18:29;23.95;;;10.90;;
21860;SDS011;11095;48.066;8.540;2024-01-15T00:20:55;23.55;;;11.07;;
21860;SDS011;11095;48.066;8.540;2024-01-15T00:23:21;22.38;;;9.95;;
21860;SDS011;11095;48.066;8.540;2024-01-15T00:25:47;21.67;;;9.65;;
21860;SDS011;11095;48.066;8.540;2024-01-15T00:28:13;21.70;;;10.00;;
21860;SDS011;11095;48.066;8.540;2024-01-15T00:30:38;23.92;;;10.38;;
21860;SDS011;11095;48.066;8.540;2024-01-15T00:33:04;22.05;;;10.38;;
21860;SDS011;11095;48.066;8.540;2024-01-15T00:35:29;22.60;;;10.05;;
21860;SDS011;11095;48.066;8.540;2024-01-15T00:37:55;21.58;;;10.05;;
21860;SDS011;11095;48.066;8.540;2024-01-15T00:40:21;21.00;;;9.90;;
21860;SDS011;11095;48.066;8.540;2024-01-15T00:42:46;23.98;;;9.65;;
21860;SDS011;11095;48.066;8.540;2024-01-15T00:45:12;21.50;;;9.23;;
21860;SDS011;11095;48.066;8.540;2024-01-15T00:47:37;21.75;;;9.88;;
21860;SDS011;11095;48.066;8.540;2024-01-15T00:50:03;21.77;;;9.90;;
21860;SDS011;11095;48.066;8.540;2024-01-15T00:52:29;19.45;;;9.23;;
21860;SDS011;11095;48.066;8.540;2024-01-15T00:54:55;21.85;;;9.48;;
21860;SDS011;11095;48.066;8.540;2024-01-15T00:57:20;21.48;;;9.70;;
21860;SDS011;11095;48.066;8.540;2024-01-15T00:59:46;23.13;;;9.98;;
21860;SDS011;11095;48.066;8.540;2024-01-15T01:02:12;20.52;;;9.55;;
21860;SDS011;11095;48.066;8.540;2024-01-15T01:04:37;19.33;;;8.63;;
21860;SDS011;11095;48.066;8.540;2024-01-15T01:07:03;17.38;;;8.52;;
21860;SDS011;11095;48.066;8.540;2024-01-15T01:09:29;18.92;;;8.73;;
21860;SDS011;11095;48.066;8.540;2024-01-15T01:11:55;18.25;;;8.15;;
21860;SDS011;11095;48.066;8.540;2024-01-15T01:14:21;17.85;;;8.15;;
21860;SDS011;11095;48.066;8.540;2024-01-15T01:16:47;18.08;;;7.95;;
21860;SDS011;11095;48.066;8.540;2024-01-15T01:19:12;17.67;;;7.78;;
21860;SDS011;11095;48.066;8.540;2024-01-15T01:21:38;14.65;;;7.20;;
21860;SDS011;11095;48.066;8.540;2024-01-15T01:24:04;16.45;;;7.65;;
21860;SDS011;11095;48.066;8.540;2024-01-15T01:26:30;17.60;;;7.45;;
21860;SDS011;11095;48.066;8.540;2024-01-15T01:28:56;16.13;;;7.38;;
21860;SDS011;11095;48.066;8.540;2024-01-15T01:31:22;14.90;;;7.15;;
21860;SDS011;11095;48.066;8.540;2024-01-15T01:33:48;17.25;;;7.32;;
21860;SDS011;11095;48.066;8.540;2024-01-15T01:36:14;16.40;;;7.20;;
21860;SDS011;11095;48.066;8.540;2024-01-15T01:38:40;17.73;;;7.55;;
21860;SDS011;11095;48.066;8.540;2024-01-15T01:41:06;16.75;;;7.38;;
21860;SDS011;11095;48.066;8.540;2024-01-15T01:43:31;15.88;;;7.55;;
21860;SDS011;11095;48.066;8.540;2024-01-15T01:45:58;17.63;;;7.45;;
21860;SDS011;11095;48.066;8.540;2024-01-15T01:48:26;16.38;;;7.60;;
21860;SDS011;11095;48.066;8.540;2024-01-15T01:50:57;18.92;;;7.95;;
21860;SDS011;11095;48.066;8.540;2024-01-15T01:53:24;16.10;;;7.13;;
21860;SDS011;11095;48.066;8.540;2024-01-15T01:55:51;14.68;;;6.85;;
21860;SDS011;11095;48.066;8.540;2024-01-15T01:58:17;15.23;;;7.07;;
21860;SDS011;11095;48.066;8.540;2024-01-15T02:00:44;15.65;;;7.45;;
21860;SDS011;11095;48.066;8.540;2024-01-15T02:03:10;16.48;;;6.72;;
21860;SDS011;11095;48.066;8.540;2024-01-15T02:05:35;13.88;;;6.88;;
21860;SDS011;11095;48.066;8.540;2024-01-15T02:08:02;13.52;;;6.13;;
21860;SDS011;11095;48.066;8.540;2024-01-15T02:10:27;13.82;;;6.60;;
21860;SDS011;11095;48.066;8.540;2024-01-15T02:12:53;18.42;;;7.15;;
21860;SDS011;11095;48.066;8.540;2024-01-15T02:15:18;15.38;;;7.07;;
21860;SDS011;11095;48.066;8.540;2024-01-15T02:17:56;16.35;;;7.15;;
21860;SDS011;11095;48.066;8.540;2024-01-15T02:20:32;15.32;;;6.72;;
21860;SDS011;11095;48.066;8.540;2024-01-15T02:23:08;16.73;;;6.97;;
21860;SDS011;11095;48.066;8.540;2024-01-15T02:25:38;14.77;;;6.47;;
21860;SDS011;11095;48.066;8.540;2024-01-15T02:28:06;17.38;;;7.10;;
21860;SDS011;11095;48.066;8.540;2024-01-15T02:30:34;14.45;;;6.75;;
21860;SDS011;11095;48.066;8.540;2024-01-15T02:33:07;14.57;;;6.97;;
21860;SDS011;11095;48.066;8.540;2024-01-15T02:35:34;14.25;;;7.15;;
21860;SDS011;11095;48.066;8.540;2024-01-15T02:38:03;15.27;;;7.15;;
21860;SDS011;11095;48.066;8.540;2024-01-15T02:42:58;15.98;;;6.18;;
21860;SDS011;11095;48.066;8.540;2024-01-15T02:45:24;14.60;;;5.95;;
21860;SDS011;11095;48.066;8.540;2024-01-15T02:47:49;12.15;;;6.03;;
21860;SDS011;11095;48.066;8.540;2024-01-15T02:50:15;12.73;;;6.28;;
21860;SDS011;11095;48.066;8.540;2024-01-15T02:52:41;14.73;;;6.95;;
21860;SDS011;11095;48.066;8.540;2024-01-15T02:55:08;11.98;;;5.93;;
21860;SDS011;11095;48.066;8.540;2024-01-15T02:57:33;13.98;;;5.95;;
21860;SDS011;11095;48.066;8.540;2024-01-15T02:59:59;11.90;;;5.43;;
21860;SDS011;11095;48.066;8.540;2024-01-15T03:02:25;11.32;;;5.28;;
21860;SDS011;11095;48.066;8.540;2024-01-15T03:04:50;9.85;;;4.72;;
21860;SDS011;11095;48.066;8.540;2024-01-15T03:07:16;10.50;;;5.18;;
21860;SDS011;11095;48.066;8.540;2024-01-15T03:09:42;11.73;;;5.10;;
21860;SDS011;11095;48.066;8.540;2024-01-15T03:12:07;10.93;;;5.10;;
21860;SDS011;11095;48.066;8.540;2024-01-15T03:14:33;11.35;;;5.82;;
21860;SDS011;11095;48.066;8.540;2024-01-15T03:16:59;12.70;;;5.47;;
21860;SDS011;11095;48.066;8.540;2024-01-15T03:19:25;13.10;;;5.70;;
21860;SDS011;11095;48.066;8.540;2024-01-15T03:21:51;11.90;;;5.95;;
21860;SDS011;11095;48.066;8.540;2024-01-15T03:24:17;13.13;;;5.70;;
21860;SDS011;11095;48.066;8.540;2024-01-15T03:26:42;10.73;;;5.63;;
21860;SDS011;11095;48.066;8.540;2024-01-15T03:29:08;14.68;;;6.05;;
21860;SDS011;11095;48.066;8.540;2024-01-15T03:31:34;12.25;;;6.05;;
21860;SDS011;11095;48.066;8.540;2024-01-15T03:33:59;11.38;;;5.75;;
21860;SDS011;11095;48.066;8.540;2024-01-15T03:36:25;10.80;;;5.60;;
21860;SDS011;11095;48.066;8.540;2024-01-15T03:38:51;12.48;;;5.82;;
21860;SDS011;11095;48.066;8.540;2024-01-15T03:41:16;11.57;;;5.38;;
21860;SDS011;11095;48.066;8.540;2024-01-15T03:43:42;10.02;;;5.25;;
21860;SDS011;11095;48.066;8.540;2024-01-15T03:46:07;13.35;;;5.53;;
21860;SDS011;11095;48.066;8.540;2024-01-15T03:48:33;13.70;;;5.60;;
21860;SDS011;11095;48.066;8.540;2024-01-15T03:50:58;12.23;;;5.80;;
21860;SDS011;11095;48.066;8.540;2024-01-15T03:53:24;10.80;;;5.05;;
21860;SDS011;11095;48.066;8.540;2024-01-15T03:55:50;9.45;;;4.72;;
21860;SDS011;11095;48.066;8.540;2024-01-15T03:58:15;7.70;;;3.83;;
21860;SDS011;11095;48.066;8.540;2024-01-15T04:00:41;7.20;;;3.90;;
21860;SDS011;11095;48.066;8.540;2024-01-15T04:03:07;7.00;;;3.72;;
21860;SDS011;11095;48.066;8.540;2024-01-15T04:05:33;7.40;;;4.03;;
21860;SDS011;11095;48.066;8.540;2024-01-15T04:07:58;10.68;;;5.05;;
21860;SDS011;11095;48.066;8.540;2024-01-15T04:10:24;9.48;;;4.93;;
21860;SDS011;11095;48.066;8.540;2024-01-15T04:12:50;12.73;;;5.72;;
21860;SDS011;11095;48.066;8.540;2024-01-15T04:15:15;10.40;;;5.28;;
21860;SDS011;11095;48.066;8.540;2024-01-15T04:17:41;10.70;;;4.72;;
21860;SDS011;11095;48.066;8.540;2024-01-15T04:20:07;10.02;;;4.97;;
21860;SDS011;11095;48.066;8.540;2024-01-15T04:22:33;11.63;;;4.90;;
21860;SDS011;11095;48.066;8.540;2024-01-15T04:24:59;10.05;;;5.00;;
21860;SDS011;11095;48.066;8.540;2024-01-15T04:27:25;9.50;;;4.53;;
21860;SDS011;11095;48.066;8.540;2024-01-15T04:29:51;9.25;;;4.78;;
21860;SDS011;11095;48.066;8.540;2024-01-15T04:32:16;9.13;;;4.53;;
21860;SDS011;11095;48.066;8.540;2024-01-15T04:34:42;8.55;;;4.65;;
21860;SDS011;11095;48.066;8.540;2024-01-15T04:37:07;9.15;;;4.93;;
21860;SDS011;11095;48.066;8.540;2024-01-15T04:39:33;7.90;;;4.47;;
21860;SDS011;11095;48.066;8.540;2024-01-15T04:41:58;7.70;;;4.13;;
21860;SDS011;11095;48.066;8.540;2024-01-15T04:44:24;7.78;;;3.85;;
21860;SDS011;11095;48.066;8.540;2024-01-15T04:46:49;8.02;;;4.00;;
21860;SDS011;11095;48.066;8.540;2024-01-15T04:49:15;8.27;;;4.10;;
21860;SDS011;11095;48.066;8.540;2024-01-15T04:51:41;8.32;;;3.88;;
21860;SDS011;11095;48.066;8.540;2024-01-15T04:54:06;9.70;;;4.30;;
21860;SDS011;11095;48.066;8.540;2024-01-15T04:56:32;7.10;;;3.80;;
21860;SDS011;11095;48.066;8.540;2024-01-15T04:58:57;7.45;;;3.80;;
21860;SDS011;11095;48.066;8.540;2024-01-15T05:01:23;6.30;;;3.45;;
21860;SDS011;11095;48.066;8.540;2024-01-15T05:03:48;7.47;;;3.65;;
21860;SDS011;11095;48.066;8.540;2024-01-15T05:06:14;9.75;;;4.13;;
21860;SDS011;11095;48.066;8.540;2024-01-15T05:08:40;7.22;;;3.70;;
21860;SDS011;11095;48.066;8.540;2024-01-15T05:11:06;8.00;;;3.92;;
21860;SDS011;11095;48.066;8.540;2024-01-15T05:13:31;8.65;;;4.20;;
21860;SDS011;11095;48.066;8.540;2024-01-15T05:15:57;7.05;;;3.75;;
21860;SDS011;11095;48.066;8.540;2024-01-15T05:18:22;6.57;;;3.67;;
21860;SDS011;11095;48.066;8.540;2024-01-15T05:20:48;8.40;;;3.90;;
21860;SDS011;11095;48.066;8.540;2024-01-15T05:23:13;8.43;;;4.10;;
21860;SDS011;11095;48.066;8.540;2024-01-15T05:25:39;6.45;;;3.53;;
21860;SDS011;11095;48.066;8.540;2024-01-15T05:28:05;6.07;;;3.40;;
21860;SDS011;11095;48.066;8.540;2024-01-15T05:30:31;6.28;;;3.03;;
21860;SDS011;11095;48.066;8.540;2024-01-15T05:32:56;7.28;;;3.72;;
21860;SDS011;11095;48.066;8.540;2024-01-15T05:35:22;7.75;;;4.00;;
21860;SDS011;11095;48.066;8.540;2024-01-15T05:37:48;9.18;;;4.10;;
21860;SDS011;11095;48.066;8.540;2024-01-15T05:40:13;8.25;;;4.18;;
21860;SDS011;11095;48.066;8.540;2024-01-15T05:42:39;8.07;;;4.05;;
21860;SDS011;11095;48.066;8.540;2024-01-15T05:45:06;9.52;;;4.43;;
21860;SDS011;11095;48.066;8.540;2024-01-15T05:47:32;8.23;;;4.72;;
21860;SDS011;11095;48.066;8.540;2024-01-15T05:49:57;10.05;;;5.07;;
21860;SDS011;11095;48.066;8.540;2024-01-15T05:52:23;10.73;;;4.88;;
21860;SDS011;11095;48.066;8.540;2024-01-15T05:54:49;10.00;;;4.90;;
21860;SDS011;11095;48.066;8.540;2024-01-15T05:57:15;8.70;;;4.40;;
21860;SDS011;11095;48.066;8.540;2024-01-15T05:59:42;9.63;;;4.65;;
21860;SDS011;11095;48.066;8.540;2024-01-15T06:02:09;11.00;;;4.85;;
21860;SDS011;11095;48.066;8.540;2024-01-15T06:04:34;8.60;;;4.30;;
21860;SDS011;11095;48.066;8.540;2024-01-15T06:07:00;8.60;;;4.85;;
21860;SDS011;11095;48.066;8.540;2024-01-15T06:09:25;9.20;;;4.60;;
21860;SDS011;11095;48.066;8.540;2024-01-15T06:11:51;8.25;;;4.20;;
21860;SDS011;11095;48.066;8.540;2024-01-15T06:14:16;10.32;;;4.50;;
21860;SDS011;11095;48.066;8.540;2024-01-15T06:16:42;8.27;;;4.55;;
21860;SDS011;11095;48.066;8.540;2024-01-15T06:19:08;8.35;;;4.18;;
21860;SDS011;11095;48.066;8.540;2024-01-15T06:21:33;7.72;;;4.20;;
21860;SDS011;11095;48.066;8.540;2024-01-15T06:23:59;8.68;;;4.55;;
21860;SDS011;11095;48.066;8.540;2024-01-15T06:26:24;8.73;;;4.60;;
21860;SDS011;11095;48.066;8.540;2024-01-15T06:28:50;9.85;;;4.82;;
21860;SDS011;11095;48.066;8.540;2024-01-15T06:31:16;7.40;;;4.25;;
21860;SDS011;11095;48.066;8.540;2024-01-15T06:33:41;8.48;;;4.47;;
21860;SDS011;11095;48.066;8.540;2024-01-15T06:36:07;9.25;;;4.55;;
21860;SDS011;11095;48.066;8.540;2024-01-15T06:38:32;7.70;;;4.30;;
21860;SDS011;11095;48.066;8.540;2024-01-15T06:40:58;8.73;;;4.18;;
21860;SDS011;11095;48.066;8.540;2024-01-15T06:43:24;6.72;;;4.55;;
21860;SDS011;11095;48.066;8.540;2024-01-15T06:45:49;9.43;;;4.82;;
21860;SDS011;11095;48.066;8.540;2024-01-15T06:48:15;9.43;;;4.30;;
21860;SDS011;11095;48.066;8.540;2024-01-15T06:50:44;7.13;;;4.03;;
21860;SDS011;11095;48.066;8.540;2024-01-15T06:53:10;7.57;;;4.18;;
21860;SDS011;11095;48.066;8.540;2024-01-15T06:55:36;7.53;;;3.85;;
21860;SDS011;11095;48.066;8.540;2024-01-15T06:58:02;7.15;;;3.90;;
21860;SDS011;11095;48.066;8.540;2024-01-15T07:00:28;6.45;;;3.60;;
21860;SDS011;11095;48.066;8.540;2024-01-15T07:02:54;6.78;;;3.80;;
21860;SDS011;11095;48.066;8.540;2024-01-15T07:05:23;6.72;;;3.80;;
21860;SDS011;11095;48.066;8.540;2024-01-15T07:07:48;6.22;;;3.58;;
21860;SDS011;11095;48.066;8.540;2024-01-15T07:10:14;5.40;;;3.15;;
21860;SDS011;11095;48.066;8.540;2024-01-15T07:12:43;6.47;;;3.63;;
21860;SDS011;11095;48.066;8.540;2024-01-15T07:15:09;6.05;;;3.70;;
21860;SDS011;11095;48.066;8.540;2024-01-15T07:17:35;7.72;;;4.00;;
21860;SDS011;11095;48.066;8.540;2024-01-15T07:20:04;7.07;;;4.05;;
21860;SDS011;11095;48.066;8.540;2024-01-15T07:22:33;8.88;;;4.47;;
21860;SDS011;11095;48.066;8.540;2024-01-15T07:25:00;6.65;;;3.90;;
21860;SDS011;11095;48.066;8.540;2024-01-15T07:27:26;8.57;;;4.80;;
21860;SDS011;11095;48.066;8.540;2024-01-15T07:29:51;8.88;;;4.05;;
21860;SDS011;11095;48.066;8.540;2024-01-15T07:32:17;6.82;;;3.83;;
21860;SDS011;11095;48.066;8.540;2024-01-15T07:34:43;5.85;;;3.92;;
21860;SDS011;11095;48.066;8.540;2024-01-15T07:37:08;8.18;;;3.90;;
21860;SDS011;11095;48.066;8.540;2024-01-15T07:39:34;7.55;;;4.00;;
21860;SDS011;11095;48.066;8.540;2024-01-15T07:42:00;6.55;;;3.53;;
21860;SDS011;11095;48.066;8.540;2024-01-15T07:44:25;6.35;;;3.63;;
21860;SDS011;11095;48.066;8.540;2024-01-15T07:46:51;6.68;;;3.70;;
21860;SDS011;11095;48.066;8.540;2024-01-15T07:49:17;6.85;;;3.40;;
21860;SDS011;11095;48.066;8.540;2024-01-15T07:51:42;5.47;;;3.53;;
21860;SDS011;11095;48.066;8.540;2024-01-15T07:54:11;5.32;;;3.22;;
21860;SDS011;11095;48.066;8.540;2024-01-15T07:56:55;6.85;;;4.05;;
21860;SDS011;11095;48.066;8.540;2024-01-15T07:59:24;6.32;;;3.75;;
21860;SDS011;11095;48.066;8.540;2024-01-15T08:01:51;6.72;;;4.05;;
21860;SDS011;11095;48.066;8.540;2024-01-15T08:04:17;7.25;;;4.30;;
21860;SDS011;11095;48.066;8.540;2024-01-15T08:06:43;8.80;;;3.92;;
21860;SDS011;11095;48.066;8.540;2024-01-15T08:09:09;8.18;;;4.88;;
21860;SDS011;11095;48.066;8.540;2024-01-15T08:11:35;8.38;;;4.40;;
21860;SDS011;11095;48.066;8.540;2024-01-15T08:14:00;8.75;;;4.40;;
21860;SDS011;11095;48.066;8.540;2024-01-15T08:16:26;10.55;;;4.35;;
21860;SDS011;11095;48.066;8.540;2024-01-15T08:18:52;7.47;;;3.88;;
21860;SDS011;11095;48.066;8.540;2024-01-15T08:21:21;8.32;;;4.00;;
21860;SDS011;11095;48.066;8.540;2024-01-15T08:23:47;5.40;;;3.50;;
21860;SDS011;11095;48.066;8.540;2024-01-15T08:26:13;5.82;;;3.78;;
21860;SDS011;11095;48.066;8.540;2024-01-15T08:28:38;8.98;;;3.28;;
21860;SDS011;11095;48.066;8.540;2024-01-15T08:31:04;7.15;;;3.70;;
21860;SDS011;11095;48.066;8.540;2024-01-15T08:33:29;6.88;;;3.47;;
21860;SDS011;11095;48.066;8.540;2024-01-15T08:35:55;6.53;;;3.63;;
21860;SDS011;11095;48.066;8.540;2024-01-15T08:38:20;7.00;;;3.70;;
21860;SDS011;11095;48.066;8.540;2024-01-15T08:40:46;7.47;;;3.88;;
21860;SDS011;11095;48.066;8.540;2024-01-15T08:43:12;6.10;;;4.05;;
21860;SDS011;11095;48.066;8.540;2024-01-15T08:45:38;7.75;;;4.15;;
21860;SDS011;11095;48.066;8.540;2024-01-15T08:48:03;8.02;;;4.20;;
21860;SDS011;11095;48.066;8.540;2024-01-15T08:50:29;9.13;;;4.38;;
21860;SDS011;11095;48.066;8.540;2024-01-15T08:52:56;8.07;;;4.30;;
21860;SDS011;11095;48.066;8.540;2024-01-15T08:55:22;7.88;;;4.03;;
21860;SDS011;11095;48.066;8.540;2024-01-15T08:57:48;6.68;;;3.63;;
21860;SDS011;11095;48.066;8.540;2024-01-15T09:00:14;8.75;;;3.80;;
21860;SDS011;11095;48.066;8.540;2024-01-15T09:02:40;7.30;;;3.90;;
21860;SDS011;11095;48.066;8.540;2024-01-15T09:05:06;5.88;;;3.17;;
21860;SDS011;11095;48.066;8.540;2024-01-15T09:07:32;6.07;;;3.28;;
21860;SDS011;11095;48.066;8.540;2024-01-15T09:09:58;4.38;;;2.97;;
21860;SDS011;11095;48.066;8.540;2024-01-15T09:12:24;5.00;;;3.03;;
21860;SDS011;11095;48.066;8.540;2024-01-15T09:14:50;4.75;;;2.80;;
21860;SDS011;11095;48.066;8.540;2024-01-15T09:17:17;5.10;;;2.83;;
21860;SDS011;11095;48.066;8.540;2024-01-15T09:19:42;5.30;;;3.15;;
21860;SDS011;11095;48.066;8.540;2024-01-15T09:22:09;4.88;;;2.72;;
21860;SDS011;11095;48.066;8.540;2024-01-15T09:24:34;5.05;;;2.70;;
21860;SDS011;11095;48.066;8.540;2024-01-15T09:27:00;4.25;;;2.10;;
21860;SDS011;11095;48.066;8.540;2024-01-15T09:29:26;3.88;;;1.95;;
21860;SDS011;11095;48.066;8.540;2024-01-15T09:31:51;2.58;;;1.85;;
21860;SDS011;11095;48.066;8.540;2024-01-15T09:34:17;3.92;;;2.00;;
21860;SDS011;11095;48.066;8.540;2024-01-15T09:36:43;2.78;;;1.70;;
21860;SDS011;11095;48.066;8.540;2024-01-15T09:39:09;4.35;;;1.80;;
21860;SDS011;11095;48.066;8.540;2024-01-15T09:41:36;2.92;;;1.77;;
21860;SDS011;11095;48.066;8.540;2024-01-15T09:44:02;3.95;;;1.83;;
21860;SDS011;11095;48.066;8.540;2024-01-15T09:46:29;2.50;;;1.70;;
21860;SDS011;11095;48.066;8.540;2024-01-15T09:48:57;3.00;;;1.88;;
21860;SDS011;11095;48.066;8.540;2024-01-15T09:51:24;3.45;;;2.00;;
21860;SDS011;11095;48.066;8.540;2024-01-15T09:53:50;3.92;;;2.22;;
21860;SDS011;11095;48.066;8.540;2024-01-15T09:56:16;4.80;;;2.40;;
21860;SDS011;11095;48.066;8.540;2024-01-15T09:58:42;3.22;;;1.98;;
21860;SDS011;11095;48.066;8.540;2024-01-15T10:01:08;2.88;;;2.15;;
21860;SDS011;11095;48.066;8.540;2024-01-15T10:03:34;3.17;;;2.00;;
21860;SDS011;11095;48.066;8.540;2024-01-15T10:06:00;3.17;;;2.08;;
21860;SDS011;11095;48.066;8.540;2024-01-15T10:08:27;2.70;;;1.92;;
21860;SDS011;11095;48.066;8.540;2024-01-15T10:10:53;2.75;;;1.65;;
21860;SDS011;11095;48.066;8.540;2024-01-15T10:13:18;2.05;;;1.48;;
21860;SDS011;11095;48.066;8.540;2024-01-15T10:15:46;2.05;;;1.50;;
21860;SDS011;11095;48.066;8.540;2024-01-15T10:18:15;2.42;;;1.27;;
21860;SDS011;11095;48.066;8.540;2024-01-15T10:20:40;1.90;;;1.45;;
21860;SDS011;11095;48.066;8.540;2024-01-15T10:23:07;3.25;;;1.60;;
21860;SDS011;11095;48.066;8.540;2024-01-15T10:25:33;2.30;;;1.45;;
21860;SDS011;11095;48.066;8.540;2024-01-15T10:28:01;3.55;;;1.80;;
21860;SDS011;11095;48.066;8.540;2024-01-15T10:30:28;2.22;;;1.50;;
21860;SDS011;11095;48.066;8.540;2024-01-15T10:33:00;1.83;;;1.30;;
21860;SDS011;11095;48.066;8.540;2024-01-15T10:35:28;2.08;;;1.73;;
21860;SDS011;11095;48.066;8.540;2024-01-15T10:38:00;2.72;;;1.80;;
21860;SDS011;11095;48.066;8.540;2024-01-15T10:40:27;3.97;;;1.98;;
21860;SDS011;11095;48.066;8.540;2024-01-15T10:42:53;2.90;;;1.70;;
21860;SDS011;11095;48.066;8.540;2024-01-15T10:45:18;3.95;;;1.90;;
21860;SDS011;11095;48.066;8.540;2024-01-15T10:47:44;2.63;;;1.80;;
21860;SDS011;11095;48.066;8.540;2024-01-15T10:50:11;2.30;;;1.75;;
21860;SDS011;11095;48.066;8.540;2024-01-15T10:52:38;2.75;;;1.75;;
21860;SDS011;11095;48.066;8.540;2024-01-15T10:55:10;2.90;;;1.50;;
21860;SDS011;11095;48.066;8.540;2024-01-15T10:57:37;2.53;;;1.80;;
21860;SDS011;11095;48.066;8.540;2024-01-15T11:00:03;2.30;;;1.50;;
21860;SDS011;11095;48.066;8.540;2024-01-15T11:02:34;3.13;;;1.90;;
21860;SDS011;11095;48.066;8.540;2024-01-15T11:05:02;2.25;;;1.75;;
21860;SDS011;11095;48.066;8.540;2024-01-15T11:07:28;1.67;;;1.50;;
21860;SDS011;11095;48.066;8.540;2024-01-15T11:09:55;3.05;;;1.85;;
21860;SDS011;11095;48.066;8.540;2024-01-15T11:12:23;4.40;;;2.00;;
21860;SDS011;11095;48.066;8.540;2024-01-15T11:14:49;2.35;;;1.52;;
21860;SDS011;11095;48.066;8.540;2024-01-15T11:17:16;3.58;;;2.03;;
21860;SDS011;11095;48.066;8.540;2024-01-15T11:19:46;2.80;;;2.00;;
21860;SDS011;11095;48.066;8.540;2024-01-15T11:22:47;2.53;;;1.88;;
21860;SDS011;11095;48.066;8.540;2024-01-15T11:25:13;3.05;;;1.90;;
21860;SDS011;11095;48.066;8.540;2024-01-15T11:27:43;3.40;;;1.95;;
21860;SDS011;11095;48.066;8.540;2024-01-15T11:30:12;2.60;;;1.92;;
21860;SDS011;11095;48.066;8.540;2024-01-15T11:32:38;2.83;;;1.90;;
21860;SDS011;11095;48.066;8.540;2024-01-15T11:40:22;2.65;;;1.73;;
21860;SDS011;11095;48.066;8.540;2024-01-15T11:43:04;2.60;;;1.70;;
21860;SDS011;11095;48.066;8.540;2024-01-15T11:45:31;2.10;;;1.80;;
21860;SDS011;11095;48.066;8.540;2024-01-15T11:50:24;3.80;;;1.83;;
21860;SDS011;11095;48.066;8.540;2024-01-15T11:52:58;3.55;;;2.10;;
21860;SDS011;11095;48.066;8.540;2024-01-15T11:57:53;4.10;;;2.45;;
21860;SDS011;11095;48.066;8.540;2024-01-15T12:00:19;6.10;;;2.47;;
21860;SDS011;11095;48.066;8.540;2024-01-15T12:02:47;5.20;;;2.50;;
21860;SDS011;11095;48.066;8.540;2024-01-15T12:05:14;4.85;;;2.60;;
21860;SDS011;11095;48.066;8.540;2024-01-15T12:07:41;4.93;;;2.58;;
21860;SDS011;11095;48.066;8.540;2024-01-15T12:10:08;6.65;;;3.17;;
21860;SDS011;11095;48.066;8.540;2024-01-15T12:12:51;5.00;;;2.95;;
21860;SDS011;11095;48.066;8.540;2024-01-15T12:15:22;5.65;;;2.97;;
21860;SDS011;11095;48.066;8.540;2024-01-15T12:17:48;5.80;;;3.20;;
21860;SDS011;11095;48.066;8.540;2024-01-15T12:20:14;5.18;;;2.95;;
21860;SDS011;11095;48.066;8.540;2024-01-15T12:22:41;5.68;;;3.10;;
21860;SDS011;11095;48.066;8.540;2024-01-15T12:25:06;5.03;;;3.08;;
21860;SDS011;11095;48.066;8.540;2024-01-15T12:27:32;5.65;;;3.22;;
21860;SDS011;11095;48.066;8.540;2024-01-15T12:29:58;5.97;;;3.00;;
21860;SDS011;11095;48.066;8.540;2024-01-15T12:32:24;7.05;;;3.40;;
21860;SDS011;11095;48.066;8.540;2024-01-15T12:34:50;8.85;;;3.25;;
21860;SDS011;11095;48.066;8.540;2024-01-15T12:37:18;5.30;;;3.05;;
21860;SDS011;11095;48.066;8.540;2024-01-15T12:39:44;4.70;;;2.80;;
21860;SDS011;11095;48.066;8.540;2024-01-15T12:42:11;5.68;;;3.15;;
21860;SDS011;11095;48.066;8.540;2024-01-15T12:44:36;6.60;;;3.55;;
21860;SDS011;11095;48.066;8.540;2024-01-15T12:47:04;4.82;;;3.30;;
21860;SDS011;11095;48.066;8.540;2024-01-15T12:49:30;6.70;;;3.67;;
21860;SDS011;11095;48.066;8.540;2024-01-15T12:51:57;5.72;;;3.28;;
21860;SDS011;11095;48.066;8.540;2024-01-15T12:54:23;5.82;;;3.50;;
21860;SDS011;11095;48.066;8.540;2024-01-15T12:56:49;6.45;;;3.45;;
21860;SDS011;11095;48.066;8.540;2024-01-15T12:59:15;5.85;;;3.60;;
21860;SDS011;11095;48.066;8.540;2024-01-15T13:01:41;5.82;;;3.28;;
21860;SDS011;11095;48.066;8.540;2024-01-15T13:04:07;6.88;;;3.75;;
21860;SDS011;11095;48.066;8.540;2024-01-15T13:06:33;6.75;;;3.78;;
21860;SDS011;11095;48.066;8.540;2024-01-15T13:08:59;8.07;;;3.95;;
21860;SDS011;11095;48.066;8.540;2024-01-15T13:11:25;7.25;;;3.90;;
21860;SDS011;11095;48.066;8.540;2024-01-15T13:13:51;6.90;;;3.65;;
21860;SDS011;11095;48.066;8.540;2024-01-15T13:16:17;6.63;;;3.88;;
21860;SDS011;11095;48.066;8.540;2024-01-15T13:18:45;6.65;;;3.78;;
21860;SDS011;11095;48.066;8.540;2024-01-15T13:21:11;6.72;;;3.95;;
21860;SDS011;11095;48.066;8.540;2024-01-15T13:23:37;7.63;;;4.00;;
21860;SDS011;11095;48.066;8.540;2024-01-15T13:26:03;6.70;;;3.92;;
21860;SDS011;11095;48.066;8.540;2024-01-15T13:28:30;6.72;;;3.95;;
21860;SDS011;11095;48.066;8.540;2024-01-15T13:30:55;6.78;;;4.07;;
21860;SDS011;11095;48.066;8.540;2024-01-15T13:33:21;7.45;;;3.97;;
21860;SDS011;11095;48.066;8.540;2024-01-15T13:35:46;7.20;;;4.05;;
21860;SDS011;11095;48.066;8.540;2024-01-15T13:38:14;8.43;;;4.25;;
21860;SDS011;11095;48.066;8.540;2024-01-15T13:40:40;6.90;;;3.72;;
21860;SDS011;11095;48.066;8.540;2024-01-15T13:43:06;9.02;;;4.47;;
21860;SDS011;11095;48.066;8.540;2024-01-15T13:45:33;8.45;;;4.43;;
21860;SDS011;11095;48.066;8.540;2024-01-15T13:47:59;8.57;;;4.47;;
21860;SDS011;11095;48.066;8.540;2024-01-15T13:50:25;7.63;;;4.25;;
21860;SDS011;11095;48.066;8.540;2024-01-15T13:52:50;8.20;;;4.47;;
21860;SDS011;11095;48.066;8.540;2024-01-15T13:55:16;8.35;;;4.50;;
21860;SDS011;11095;48.066;8.540;2024-01-15T13:57:41;9.88;;;4.78;;
21860;SDS011;11095;48.066;8.540;2024-01-15T14:00:07;7.75;;;4.28;;
21860;SDS011;11095;48.066;8.540;2024-01-15T14:02:34;7.88;;;4.10;;
21860;SDS011;11095;48.066;8.540;2024-01-15T14:05:00;8.60;;;4.50;;
21860;SDS011;11095;48.066;8.540;2024-01-15T14:07:27;8.43;;;4.47;;
21860;SDS011;11095;48.066;8.540;2024-01-15T14:09:52;8.15;;;4.20;;
21860;SDS011;11095;48.066;8.540;2024-01-15T14:12:18;8.55;;;4.05;;
21860;SDS011;11095;48.066;8.540;2024-01-15T14:14:44;6.60;;;4.20;;
21860;SDS011;11095;48.066;8.540;2024-01-15T14:17:09;7.22;;;4.20;;
21860;SDS011;11095;48.066;8.540;2024-01-15T14:19:35;8.13;;;4.22;;
21860;SDS011;11095;48.066;8.540;2024-01-15T14:22:00;6.68;;;3.97;;
21860;SDS011;11095;48.066;8.540;2024-01-15T14:24:26;6.82;;;3.78;;
21860;SDS011;11095;48.066;8.540;2024-01-15T14:26:52;6.72;;;3.90;;
21860;SDS011;11095;48.066;8.540;2024-01-15T14:29:17;7.05;;;3.83;;
21860;SDS011;11095;48.066;8.540;2024-01-15T14:31:47;6.15;;;3.63;;
21860;SDS011;11095;48.066;8.540;2024-01-15T14:34:13;6.60;;;3.95;;
21860;SDS011;11095;48.066;8.540;2024-01-15T14:36:38;7.47;;;3.60;;
21860;SDS011;11095;48.066;8.540;2024-01-15T14:39:04;7.18;;;3.58;;
21860;SDS011;11095;48.066;8.540;2024-01-15T14:41:29;5.80;;;3.80;;
21860;SDS011;11095;48.066;8.540;2024-01-15T14:43:55;6.22;;;3.30;;
21860;SDS011;11095;48.066;8.540;2024-01-15T14:46:22;5.68;;;3.35;;
21860;SDS011;11095;48.066;8.540;2024-01-15T14:48:47;4.90;;;3.22;;
21860;SDS011;11095;48.066;8.540;2024-01-15T14:51:13;6.18;;;3.47;;